Select METAR Reports

 

KTOP - Topeka/Billard, Kansas USA
Distance from station: WSW 23mi, 37km
Updated: 11/20/2019 2:53am CST
Clear
Clear
 Wind from E
Wind: E 8 mph , 13 km/h
Temperature: 41°F , 5°C
Wind Chill: 36°F , 2°C
Dew Point: 34°F , 1°C
Humidity: 76%
Barometer: 29.90 inHg , 1012.5 hPa
Clouds: Clear
Visibility: 10 miles , 16 km
2019/11/20 08:53 KTOP 200853Z AUTO 08007KT 10SM CLR 05/01 A2990 RMK AO2 SLP125 T00500006 56006
KMCI - Kansas City Intl, Missouri USA
Distance from station: ENE 28mi, 45km
Updated: 11/20/2019 3:53am CST
Clear
Clear
 Wind from SSE
Wind: SSE 13 mph , 20 km/h
Temperature: 48°F , 9°C
Wind Chill: 43°F , 6°C
Dew Point: 34°F , 1°C
Humidity: 58%
Barometer: 29.93 inHg , 1013.5 hPa
Clouds: Clear
Visibility: 10 miles , 16 km
2019/11/20 09:53 KMCI 200953Z 15011KT 10SM CLR 09/01 A2993 RMK AO2 SLP132 T00890006
 
KFOE - Topeka/Forbes, Kansas USA
Distance from station: SW 29mi, 46km
Updated: 11/20/2019 3:53am CST
Clear
Clear
 Wind from SE
Wind: SE 9 mph , 15 km/h
Temperature: 46°F , 8°C
Wind Chill: 41°F , 5°C
Dew Point: 34°F , 1°C
Humidity: 62%
Barometer: 29.87 inHg , 1011.5 hPa
Clouds: Clear
Visibility: 10 miles , 16 km
2019/11/20 09:53 KFOE 200953Z AUTO 13008KT 10SM CLR 08/01 A2987 RMK AO2 SLP115 T00780006
KIXD - Olathe/Industrial, Kansas USA
Distance from station: SE 32mi, 52km
Updated: 11/20/2019 3:53am CST
Clear
Clear
 Wind from ESE
Wind: ESE 8 mph , 13 km/h
Temperature: 46°F , 8°C
Wind Chill: 42°F , 6°C
Dew Point: 32°F , 0°C
Humidity: 57%
Barometer: 29.93 inHg , 1013.5 hPa
Clouds: Clear
Visibility: 10 miles , 16 km
2019/11/20 09:53 KIXD 200953Z AUTO 11007KT 10SM CLR 08/00 A2993 RMK AO2 SLP135 T00830000 $
 
KMKC - Kansas City/Dntn, Missouri USA
Distance from station: E 35mi, 56km
Updated: 11/20/2019 3:54am CST
Clear
Clear
 Wind from ENE
Wind: ENE 6 mph , 9 km/h
Temperature: 48°F , 9°C
Wind Chill: 45°F , 7°C
Dew Point: 32°F , 0°C
Humidity: 54%
Barometer: 29.94 inHg , 1013.9 hPa
Clouds: Clear
Visibility: 10 miles , 16 km
2019/11/20 09:54 KMKC 200954Z 06005KT 10SM CLR 09/00 A2994 RMK AO2 SLP137 T00890000
KMHK - Manhattan, Kansas USA
Distance from station: W 75mi, 120km
Updated: 11/20/2019 3:52am CST
Clear
Clear
 Wind from calm
Wind: Calm
Temperature: 52°F , 11°C
Dew Point: 36°F , 2°C
Humidity: 54%
Barometer: 29.82 inHg , 1009.8 hPa
Clouds: Clear
Visibility: 10 miles , 16 km
2019/11/20 09:52 KMHK 200952Z AUTO 00000KT 10SM CLR 11/02 A2982 RMK AO2 SLP095 T01110017
 
KFRI - Ft Riley/Marshal, Kansas, USA
Distance from station: W 83mi, 133km
Updated: 11/20/2019 3:56am CST
Clear
Clear
 Wind from SSE
Wind: SSE 17 mph , 28 km/h, Gust: 24 mph , 39 km/h
Temperature: 54°F , 12°C
Dew Point: 36°F , 2°C
Humidity: 51%
Barometer: 29.79 inHg , 1008.8 hPa
Clouds: Clear
Visibility: 10 miles , 16 km
2019/11/20 09:56 KFRI 200956Z AUTO 16015G21KT 10SM CLR 12/02 A2979 RMK AO2 SLP083 T01220015
KOMA - Omaha, Nebraska USA
Distance from station: N 148mi, 239km
Updated: 11/20/2019 3:52am CST
Clear
Clear
 Wind from SE
Wind: SE 12 mph , 19 km/h
Temperature: 45°F , 7°C
Wind Chill: 39°F , 4°C
Dew Point: 34°F , 1°C
Humidity: 66%
Barometer: 29.88 inHg , 1011.9 hPa
Clouds: Clear
Visibility: 10 miles , 16 km
2019/11/20 09:52 KOMA 200952Z 13010KT 10SM CLR 07/01 A2988 RMK AO2 SLP120 T00720006
 
KICT - Wichita, Kansas USA
Distance from station: SW 176mi, 283km
Updated: 11/20/2019 3:53am CST
Clear
Clear
 Wind from SSE
Wind: SSE 15 mph , 24 km/h
Temperature: 55°F , 13°C
Dew Point: 39°F , 4°C
Humidity: 55%
Barometer: 29.79 inHg , 1008.8 hPa
Clouds: Clear
Visibility: 10 miles , 16 km
2019/11/20 09:53 KICT 200953Z 15013KT 10SM CLR 13/04 A2979 RMK AO2 SLP082 T01280039 $
KDSM - Des Moines, Iowa USA
Distance from station: NNE 186mi, 300km
Updated: 11/20/2019 3:54am CST
Overcast
Overcast
 Wind from ESE
Wind: ESE 8 mph , 13 km/h
Temperature: 41°F , 5°C
Wind Chill: 36°F , 2°C
Dew Point: 36°F , 2°C
Humidity: 81%
Barometer: 30.02 inHg , 1016.6 hPa
Clouds: Overcast
Visibility: 10 miles , 16 km
Cloud details: Overcast 10000 ft
2019/11/20 09:54 KDSM 200954Z 11007KT 10SM OVC100 05/02 A3002 RMK AO2 SLP168 T00500017
 
KGLD - Goodland, Kansas USA
Distance from station: W 380mi, 611km
Updated: 11/20/2019 3:53am CST
Clear
Clear
 Wind from W
Wind: W 5 mph , 7 km/h
Temperature: 32°F , 0°C
Wind Chill: 27°F , -3°C
Dew Point: 25°F , -4°C
Humidity: 75%
Barometer: 29.63 inHg , 1003.4 hPa
Clouds: Clear
Visibility: 10 miles , 16 km
2019/11/20 09:53 KGLD 200953Z AUTO 28004KT 10SM CLR 00/M04 A2963 RMK AO2 SLP021 T00001044
KOKC - Oklahoma City, Oklahoma USA
Distance from station: SSW 288mi, 463km
Updated: 11/20/2019 3:52am CST
Mostly cloudy
Mostly cloudy
 Wind from SSE
Wind: SSE 13 mph , 20 km/h
Temperature: 55°F , 13°C
Dew Point: 48°F , 9°C
Humidity: 77%
Barometer: 29.85 inHg , 1010.8 hPa
Clouds: Mostly cloudy
Visibility: 10 miles , 16 km
Cloud details: Mostly cloudy 25000 ft
2019/11/20 09:52 KOKC 200952Z 16011KT 10SM BKN250 13/09 A2985 RMK AO2 SLP100 T01330094
 
KSTL - St Loius, Missouri USA
Distance from station: E 288mi, 463km
Updated: 11/20/2019 3:51am CST
Partly cloudy
Partly cloudy
 Wind from ESE
Wind: ESE 7 mph , 11 km/h
Temperature: 37°F , 3°C
Wind Chill: 32°F , 0°C
Dew Point: 36°F , 2°C
Humidity: 93%
Barometer: 30.11 inHg , 1019.6 hPa
Clouds: Partly cloudy
Visibility: 7 miles , 11 km
Cloud details: Partly cloudy 12000 ft
Partly cloudy 25000 ft
2019/11/20 09:51 KSTL 200951Z 11006KT 7SM SCT120 SCT250 03/02 A3011 RMK AO2 SLP199 T00280017
KDFW - Dallas/Ft Worth, Texas USA
Distance from station: SSW 452mi, 728km
Updated: 11/20/2019 3:53am CST
Overcast
Overcast
 Wind from SSE
Wind: SSE 9 mph , 15 km/h
Temperature: 61°F , 16°C
Dew Point: 54°F , 12°C
Humidity: 77%
Barometer: 29.93 inHg , 1013.5 hPa
Clouds: Overcast
Visibility: 10 miles , 16 km
Cloud details: Mostly cloudy 1300 ft
Overcast 30000 ft
2019/11/20 09:53 KDFW 200953Z 16008KT 10SM BKN013 OVC300 16/12 A2993 RMK AO2 SLP128 T01560122
 
KMIA - Miami, Florida USA
Distance from station: SE 1273mi, 2049km
Updated: 11/20/2019 3:53am CST
Clear
Clear
 Wind from NNW
Wind: NNW 9 mph , 15 km/h
Temperature: 63°F , 17°C
Dew Point: 52°F , 11°C
Humidity: 68%
Barometer: 30.05 inHg , 1017.6 hPa
Clouds: Clear
Visibility: 10 miles , 16 km
2019/11/20 09:53 KMIA 200953Z 34008KT 10SM CLR 17/11 A3005 RMK AO2 SLP175 T01670111
KSAN - San Diego, California USA
Distance from station: WSW 1301mi, 2094km
Updated: 11/20/2019 3:51am CST
Overcast
Overcast
 Wind from W
Wind: W 9 mph , 15 km/h
Temperature: 63°F , 17°C
Dew Point: 54°F , 12°C
Humidity: 73%
Barometer: 29.64 inHg , 1003.7 hPa
Clouds: Overcast
Visibility: 10 miles , 16 km
Cloud details: Few Clouds 2300 ft
Mostly cloudy 2800 ft
Overcast 3500 ft
2019/11/20 09:51 KSAN 200951Z 26008KT 10SM FEW023 BKN028 OVC035 17/12 A2964 RMK AO2 RAE01 SLP038 P0000 T01720122 $
 
KPQI - Presque Isle, Maine USA
Distance from station: NNE 1462mi, 2353km
Updated: 11/20/2019 3:56am CST

 Wind from NNE
Wind: NNE 5 mph , 7 km/h
Temperature: 30°F , -1°C
Wind Chill: 25°F , -4°C
Dew Point: 28°F , -2°C
Humidity: 93%
Barometer: 29.94 inHg , 1013.9 hPa
Visibility: 10 miles , 16 km
2019/11/20 09:56 KPQI 200956Z AUTO 03004KT 10SM M01/M02 A2994 RMK AO2 SLP172 T10111017
KSEA - Seattle, Washinton USA
Distance from station: WNW 1469mi, 2364km
Updated: 11/20/2019 3:53am CST
Clear
Clear
 Wind from NNE
Wind: NNE 8 mph , 13 km/h
Temperature: 41°F , 5°C
Wind Chill: 36°F , 2°C
Dew Point: 37°F , 3°C
Humidity: 87%
Barometer: 30.11 inHg , 1019.6 hPa
Clouds: Clear
Visibility: 10 miles , 16 km
2019/11/20 09:53 KSEA 200953Z 02007KT 10SM CLR 05/03 A3011 RMK AO2 SLP205 T00500033
 
PANC - Anchorage Intl, Alaska USA
Distance from station: NW 2742mi, 4413km
Updated: 11/20/2019 3:53am CST
Overcast
Overcast
 Wind from SE
Wind: SE 18 mph , 30 km/h, Gust: 29 mph , 46 km/h
Temperature: 45°F , 7°C
Wind Chill: 37°F , 3°C
Dew Point: 34°F , 1°C
Humidity: 66%
Barometer: 29.25 inHg , 990.5 hPa
Clouds: Overcast
Visibility: 10 miles , 16 km
Cloud details: Partly cloudy 5000 ft
Mostly cloudy 7000 ft
Overcast 8000 ft
2019/11/20 09:53 PANC 200953Z 14016G25KT 10SM SCT050 BKN070 OVC080 07/01 A2925 RMK AO2 RAB32E43 SLP905 P0000 T00720006
PHNL - Honolulu, HI USA
Distance from station: WSW 3856mi, 6206km
Updated: 11/20/2019 3:53am CST
Few Clouds
Few Clouds
 Wind from NNE
Wind: NNE 6 mph , 9 km/h
Temperature: 77°F , 25°C
Dew Point: 70°F , 21°C
Humidity: 79%
Barometer: 29.99 inHg , 1015.6 hPa
Clouds: Few Clouds
Visibility: 10 miles , 16 km
Cloud details: Few Clouds 2400 ft
2019/11/20 09:53 PHNL 200953Z 03005KT 10SM FEW024 25/21 A2999 RMK AO2 SLP154 T02500206 403110217